createdAt,value
2023-03-07T00:00:08.911Z,21.50
2023-03-07T00:02:38.823Z,14.50
2023-03-07T00:05:08.888Z,17.40
2023-03-07T00:07:37.141Z,18.73
2023-03-07T00:10:04.118Z,17.27
2023-03-07T00:12:31.056Z,17.20
2023-03-07T00:14:57.542Z,17.13
2023-03-07T00:17:23.999Z,15.60
2023-03-07T00:19:50.498Z,15.47
2023-03-07T00:22:17.010Z,16.30
2023-03-07T00:24:43.509Z,16.13
2023-03-07T00:27:10.324Z,14.40
2023-03-07T00:29:39.847Z,18.40
2023-03-07T00:32:09.203Z,16.40
2023-03-07T00:34:36.713Z,14.63
2023-03-07T00:37:03.217Z,14.10
2023-03-07T00:39:29.671Z,16.97
2023-03-07T00:41:56.135Z,13.47
2023-03-07T00:44:22.625Z,15.77
2023-03-07T00:46:49.102Z,18.00
2023-03-07T00:49:15.525Z,12.87
2023-03-07T00:51:41.944Z,21.40
2023-03-07T00:54:11.926Z,21.10
2023-03-07T00:56:41.650Z,16.97
2023-03-07T00:59:11.551Z,17.07
2023-03-07T01:01:41.715Z,16.97
2023-03-07T01:04:10.966Z,19.37
2023-03-07T01:06:38.182Z,21.10
2023-03-07T01:09:08.373Z,17.70
2023-03-07T01:11:36.976Z,16.93
2023-03-07T01:14:05.870Z,13.87
2023-03-07T01:16:34.352Z,14.87
2023-03-07T01:19:04.615Z,17.93
2023-03-07T01:21:34.049Z,18.47
2023-03-07T01:24:01.003Z,13.40
2023-03-07T01:26:30.198Z,14.57
2023-03-07T01:28:58.902Z,14.73
2023-03-07T01:31:26.210Z,17.87
2023-03-07T01:33:53.799Z,18.93
2023-03-07T01:36:21.660Z,15.83
2023-03-07T01:38:49.261Z,20.00
2023-03-07T01:41:16.815Z,16.10
2023-03-07T01:43:43.464Z,14.83
2023-03-07T01:46:18.873Z,18.03
2023-03-07T01:48:48.853Z,18.93
2023-03-07T01:51:15.510Z,15.73
2023-03-07T01:53:45.962Z,14.30
2023-03-07T01:56:13.145Z,15.73
2023-03-07T01:58:42.051Z,15.13
2023-03-07T02:01:15.388Z,13.43
2023-03-07T02:04:15.120Z,13.40
2023-03-07T02:06:46.018Z,15.17
2023-03-07T02:09:18.567Z,14.77
2023-03-07T02:11:46.110Z,13.73
2023-03-07T02:14:13.714Z,16.30
2023-03-07T02:16:41.031Z,13.40
2023-03-07T02:19:30.358Z,13.77
2023-03-07T02:22:09.717Z,13.43
2023-03-07T02:25:15.350Z,13.53
2023-03-07T02:27:45.107Z,12.77
2023-03-07T02:30:12.342Z,13.70
2023-03-07T02:32:38.945Z,16.53
2023-03-07T02:35:19.677Z,16.80
2023-03-07T02:37:49.709Z,16.27
2023-03-07T02:40:19.596Z,16.40
2023-03-07T02:42:47.282Z,16.60
2023-03-07T02:45:19.065Z,15.50
2023-03-07T02:47:46.075Z,17.00
2023-03-07T02:50:17.548Z,18.70
2023-03-07T02:52:47.800Z,16.97
2023-03-07T02:55:17.203Z,23.63
2023-03-07T02:57:46.199Z,15.40
2023-03-07T03:00:15.370Z,20.37
2023-03-07T03:02:41.850Z,17.87
2023-03-07T03:05:09.192Z,21.77
2023-03-07T03:07:35.697Z,18.43
2023-03-07T03:10:02.574Z,22.73
2023-03-07T03:12:29.103Z,20.13
2023-03-07T03:14:55.556Z,19.17
2023-03-07T03:17:22.119Z,19.63
2023-03-07T03:19:48.623Z,19.33
2023-03-07T03:22:20.440Z,20.23
2023-03-07T03:24:49.709Z,17.83
2023-03-07T03:27:20.128Z,20.83
2023-03-07T03:29:47.299Z,21.30
2023-03-07T03:32:13.782Z,21.00
2023-03-07T03:34:40.630Z,21.80
2023-03-07T03:37:07.862Z,21.67
2023-03-07T03:39:34.304Z,14.80
2023-03-07T03:42:00.971Z,22.73
2023-03-07T03:44:27.481Z,26.07
2023-03-07T03:46:55.729Z,17.60
2023-03-07T03:49:22.309Z,18.47
2023-03-07T03:51:49.431Z,21.40
2023-03-07T03:54:18.408Z,22.43
2023-03-07T03:56:45.233Z,19.03
2023-03-07T03:59:11.867Z,20.47
2023-03-07T04:01:38.423Z,17.30
2023-03-07T04:04:05.016Z,23.90
2023-03-07T04:06:34.072Z,19.47
2023-03-07T04:09:00.994Z,20.47
2023-03-07T04:11:27.535Z,22.63
2023-03-07T04:13:54.254Z,24.20
2023-03-07T04:16:22.473Z,21.03
2023-03-07T04:18:52.405Z,22.37
2023-03-07T04:21:22.595Z,16.37
2023-03-07T04:23:55.353Z,31.70
2023-03-07T04:26:22.268Z,33.23
2023-03-07T04:28:51.597Z,24.73
2023-03-07T04:31:23.282Z,18.03
2023-03-07T04:33:56.045Z,19.17
2023-03-07T04:36:23.805Z,17.90
2023-03-07T04:38:53.991Z,24.77
2023-03-07T04:41:26.622Z,17.47
2023-03-07T04:43:53.258Z,19.53
2023-03-07T04:46:20.927Z,19.27
2023-03-07T04:48:47.629Z,22.57
2023-03-07T04:51:14.674Z,20.33
2023-03-07T04:53:41.162Z,25.70
2023-03-07T04:56:09.161Z,15.33
2023-03-07T04:58:36.504Z,24.07
2023-03-07T05:01:04.129Z,20.47
2023-03-07T05:03:30.635Z,20.17
2023-03-07T05:06:02.882Z,26.07
2023-03-07T05:08:29.810Z,23.90
2023-03-07T05:10:56.632Z,20.20
2023-03-07T05:13:25.966Z,19.37
2023-03-07T05:15:57.412Z,15.10
2023-03-07T05:18:24.772Z,20.83
2023-03-07T05:20:54.510Z,18.50
2023-03-07T05:23:25.148Z,18.30
2023-03-07T05:25:53.757Z,21.43
2023-03-07T05:28:20.278Z,22.40
2023-03-07T05:30:47.737Z,22.20
2023-03-07T05:33:15.103Z,18.47
2023-03-07T05:35:41.734Z,22.03
2023-03-07T05:38:08.255Z,20.20
2023-03-07T05:40:34.973Z,18.53
2023-03-07T05:43:01.715Z,18.67
2023-03-07T05:45:28.250Z,25.73
2023-03-07T05:47:54.806Z,24.57
2023-03-07T05:50:23.678Z,20.37
2023-03-07T05:52:50.165Z,26.50
2023-03-07T05:55:16.708Z,19.67
2023-03-07T05:57:43.226Z,20.30
2023-03-07T06:00:11.335Z,25.17
2023-03-07T06:02:37.786Z,24.07
2023-03-07T06:05:04.520Z,24.67
2023-03-07T06:07:30.986Z,22.83
2023-03-07T06:09:57.558Z,20.73
2023-03-07T06:12:27.189Z,20.87
2023-03-07T06:14:56.691Z,28.50
2023-03-07T06:17:26.197Z,27.33
2023-03-07T06:19:55.598Z,28.57
2023-03-07T06:22:24.445Z,21.03
2023-03-07T06:24:50.976Z,26.47
2023-03-07T06:27:17.586Z,23.33
2023-03-07T06:29:44.093Z,26.77
2023-03-07T06:32:10.622Z,19.87
2023-03-07T06:34:37.380Z,24.00
2023-03-07T06:37:03.949Z,21.27
2023-03-07T06:39:31.495Z,23.07
2023-03-07T06:41:58.419Z,24.53
2023-03-07T06:44:25.270Z,21.60
2023-03-07T06:46:54.311Z,28.93
2023-03-07T06:49:21.061Z,29.70
2023-03-07T06:51:47.940Z,26.73
2023-03-07T06:54:14.799Z,25.33
2023-03-07T06:56:43.587Z,21.13
2023-03-07T06:59:12.148Z,23.40
2023-03-07T07:01:38.992Z,25.37
2023-03-07T07:04:05.864Z,20.27
2023-03-07T07:06:32.808Z,20.73
2023-03-07T07:09:00.107Z,20.33
2023-03-07T07:11:27.302Z,25.83
2023-03-07T07:13:56.925Z,22.33
2023-03-07T07:16:27.090Z,18.83
2023-03-07T07:18:54.384Z,20.33
2023-03-07T07:21:21.683Z,25.37
2023-03-07T07:23:48.225Z,22.07
2023-03-07T07:26:14.700Z,24.77
2023-03-07T07:28:41.178Z,23.53
2023-03-07T07:31:07.709Z,22.47
2023-03-07T07:33:34.408Z,19.90
2023-03-07T07:36:01.027Z,25.20
2023-03-07T07:38:27.685Z,27.23
2023-03-07T07:40:56.329Z,26.23
2023-03-07T07:43:22.854Z,25.00
2023-03-07T07:45:49.295Z,21.53
2023-03-07T07:48:16.453Z,19.87
2023-03-07T07:50:45.408Z,20.97
2023-03-07T07:53:11.931Z,25.17
2023-03-07T07:55:38.476Z,24.30
2023-03-07T07:58:05.588Z,28.77
2023-03-07T08:00:32.372Z,28.90
2023-03-07T08:02:59.304Z,33.67
2023-03-07T08:05:28.793Z,25.10
2023-03-07T08:08:04.741Z,29.43
2023-03-07T08:10:31.234Z,29.17
2023-03-07T08:13:00.795Z,25.13
2023-03-07T08:15:27.267Z,21.30
2023-03-07T08:17:55.978Z,24.80
2023-03-07T08:20:23.570Z,30.77
2023-03-07T08:22:52.840Z,32.10
2023-03-07T08:25:24.284Z,30.33
2023-03-07T08:27:59.013Z,24.97
2023-03-07T08:30:30.205Z,29.37
2023-03-07T08:32:57.465Z,27.20
2023-03-07T08:35:28.458Z,22.70
2023-03-07T08:38:00.512Z,25.20
2023-03-07T08:40:30.770Z,28.70
2023-03-07T08:42:59.340Z,23.63
2023-03-07T08:45:28.599Z,29.20
2023-03-07T08:47:58.484Z,24.40
2023-03-07T08:50:28.743Z,24.43
2023-03-07T08:52:57.623Z,26.33
2023-03-07T08:55:26.566Z,21.10
2023-03-07T08:57:53.038Z,23.67
2023-03-07T09:00:19.826Z,21.03
2023-03-07T09:02:46.322Z,27.87
2023-03-07T09:05:12.822Z,26.20
2023-03-07T09:07:39.381Z,24.07
2023-03-07T09:10:06.501Z,29.37
2023-03-07T09:12:34.189Z,26.83
2023-03-07T09:15:00.820Z,24.03
2023-03-07T09:17:27.326Z,29.03
2023-03-07T09:19:55.929Z,25.83
2023-03-07T09:22:22.356Z,35.93
2023-03-07T09:24:48.818Z,27.60
2023-03-07T09:27:15.322Z,23.43
2023-03-07T09:29:41.848Z,26.40
2023-03-07T09:32:08.373Z,22.93
2023-03-07T09:34:34.914Z,23.57
2023-03-07T09:37:01.381Z,20.90
2023-03-07T09:39:27.951Z,30.03
2023-03-07T09:41:56.907Z,21.43
2023-03-07T09:44:35.195Z,23.13
2023-03-07T09:47:41.307Z,30.47
2023-03-07T09:50:26.692Z,26.60
2023-03-07T09:52:57.797Z,25.97
2023-03-07T09:55:28.529Z,28.47
2023-03-07T09:58:03.948Z,27.53
2023-03-07T10:00:46.035Z,30.60
2023-03-07T10:03:31.381Z,33.93
2023-03-07T10:06:07.564Z,42.13
2023-03-07T10:08:34.565Z,34.20
2023-03-07T10:11:16.809Z,35.60
2023-03-07T10:14:06.230Z,35.23
2023-03-07T10:16:56.546Z,34.90
2023-03-07T10:19:35.922Z,29.40
2023-03-07T10:22:45.152Z,30.77
2023-03-07T10:25:18.897Z,26.03
2023-03-07T10:27:48.236Z,29.80
2023-03-07T10:30:18.614Z,27.73
2023-03-07T10:32:53.762Z,28.93
2023-03-07T10:35:26.539Z,23.27
2023-03-07T10:38:05.347Z,22.53
2023-03-07T10:40:56.908Z,24.70
2023-03-07T10:43:34.314Z,23.07
2023-03-07T10:46:26.593Z,21.63
2023-03-07T10:49:01.495Z,26.00
2023-03-07T10:52:06.641Z,22.70
2023-03-07T10:54:37.435Z,20.83
2023-03-07T10:57:26.815Z,26.00
2023-03-07T10:59:53.500Z,28.37
2023-03-07T11:02:32.192Z,26.87
2023-03-07T11:04:59.139Z,20.50
2023-03-07T11:07:34.613Z,21.17
2023-03-07T11:10:12.625Z,25.00
2023-03-07T11:12:46.262Z,19.37
2023-03-07T11:15:25.066Z,23.57
2023-03-07T11:17:52.821Z,21.07
2023-03-07T11:20:26.283Z,22.03
2023-03-07T11:23:14.810Z,19.80
2023-03-07T11:25:41.369Z,20.63
2023-03-07T11:28:30.047Z,19.27
2023-03-07T11:31:55.882Z,23.83
2023-03-07T11:34:28.185Z,21.50
2023-03-07T11:37:15.097Z,22.70
2023-03-07T11:39:57.798Z,22.80
2023-03-07T11:42:31.764Z,19.83
2023-03-07T11:45:22.034Z,24.20
2023-03-07T11:48:01.138Z,18.27
2023-03-07T11:50:31.155Z,18.43
2023-03-07T11:53:03.897Z,20.03
2023-03-07T11:55:41.532Z,19.23
2023-03-07T11:58:30.373Z,22.77
2023-03-07T12:00:59.628Z,20.70
2023-03-07T12:04:01.681Z,21.47
2023-03-07T12:06:37.300Z,19.80
2023-03-07T12:09:26.287Z,16.77
2023-03-07T12:12:10.936Z,21.20
2023-03-07T12:15:00.697Z,21.63
2023-03-07T12:18:14.506Z,22.57
2023-03-07T12:21:02.250Z,20.43
2023-03-07T12:23:48.452Z,18.37
2023-03-07T12:26:28.792Z,12.53
2023-03-07T12:29:26.952Z,16.07
2023-03-07T12:32:00.660Z,18.80
2023-03-07T12:34:39.096Z,24.20
2023-03-07T12:37:18.642Z,19.17
2023-03-07T12:39:49.154Z,18.90
2023-03-07T12:42:33.938Z,23.10
2023-03-07T12:45:12.850Z,20.43
2023-03-07T12:47:53.609Z,16.17
2023-03-07T12:50:46.369Z,18.33
2023-03-07T12:53:47.163Z,14.03
2023-03-07T12:56:22.054Z,18.63
2023-03-07T12:58:58.307Z,18.50
2023-03-07T13:01:48.909Z,14.77
2023-03-07T13:04:38.531Z,16.37
2023-03-07T13:07:12.569Z,18.07
2023-03-07T13:09:45.912Z,19.53
2023-03-07T13:12:26.046Z,17.50
2023-03-07T13:15:04.757Z,18.50
2023-03-07T13:17:31.575Z,17.03
2023-03-07T13:20:01.001Z,18.27
2023-03-07T13:22:30.654Z,21.67
2023-03-07T13:25:20.074Z,18.07
2023-03-07T13:27:54.034Z,16.63
2023-03-07T13:30:30.184Z,20.07
2023-03-07T13:33:29.062Z,18.53
2023-03-07T13:36:00.547Z,19.88
2023-03-07T13:38:42.346Z,17.30
2023-03-07T13:41:11.259Z,16.67
2023-03-07T13:43:47.031Z,17.75
2023-03-07T13:46:54.401Z,16.57
2023-03-07T13:49:35.035Z,18.33
2023-03-07T13:52:22.865Z,19.83
2023-03-07T13:54:51.029Z,19.77
2023-03-07T13:57:27.265Z,23.30
2023-03-07T13:59:56.525Z,15.70
2023-03-07T14:02:23.631Z,19.77
2023-03-07T14:04:55.701Z,11.83
2023-03-07T14:07:36.608Z,12.70
2023-03-07T14:10:22.059Z,14.27
2023-03-07T14:13:21.892Z,14.60
2023-03-07T14:16:04.360Z,16.63
2023-03-07T14:18:40.233Z,16.10
2023-03-07T14:21:31.753Z,21.00
2023-03-07T14:24:10.433Z,17.80
2023-03-07T14:26:50.889Z,16.90
2023-03-07T14:29:22.882Z,15.83
2023-03-07T14:31:53.052Z,18.17
2023-03-07T14:34:19.552Z,17.83
2023-03-07T14:36:50.184Z,17.48
2023-03-07T14:39:17.947Z,19.03
2023-03-07T14:42:03.000Z,16.97
2023-03-07T14:45:06.081Z,15.82
2023-03-07T14:47:38.098Z,16.92
2023-03-07T14:50:12.706Z,15.60
2023-03-07T14:52:39.261Z,14.07
2023-03-07T14:55:07.160Z,11.98
2023-03-07T14:57:37.637Z,12.95
2023-03-07T15:00:07.361Z,13.50
2023-03-07T15:02:33.903Z,18.08
2023-03-07T15:05:02.492Z,10.27
2023-03-07T15:07:29.008Z,7.50
2023-03-07T15:09:55.565Z,12.07
2023-03-07T15:12:27.506Z,19.65
2023-03-07T15:15:04.367Z,11.50
2023-03-07T15:17:45.070Z,10.63
2023-03-07T15:20:22.917Z,13.70
2023-03-07T15:22:49.950Z,10.38
2023-03-07T15:25:25.541Z,11.43
2023-03-07T15:28:06.077Z,13.82
2023-03-07T15:30:35.373Z,9.98
2023-03-07T15:33:19.770Z,9.90
2023-03-07T15:36:06.830Z,16.45
2023-03-07T15:38:36.804Z,14.60
2023-03-07T15:41:36.295Z,10.38
2023-03-07T15:44:22.161Z,12.00
2023-03-07T15:46:51.844Z,13.27
2023-03-07T15:49:42.106Z,12.27
2023-03-07T15:52:20.078Z,17.65
2023-03-07T15:54:50.942Z,15.77
2023-03-07T15:57:22.415Z,11.25
2023-03-07T15:59:53.981Z,15.07
2023-03-07T16:02:37.826Z,12.18
2023-03-07T16:05:24.416Z,15.77
2023-03-07T16:07:53.190Z,12.27
2023-03-07T16:10:21.634Z,10.90
2023-03-07T16:12:49.128Z,12.60
2023-03-07T16:15:18.546Z,12.27
2023-03-07T16:17:46.943Z,14.55
2023-03-07T16:20:19.586Z,11.65
2023-03-07T16:22:49.553Z,11.15
2023-03-07T16:25:16.976Z,20.73
2023-03-07T16:27:53.332Z,15.57
2023-03-07T16:30:26.196Z,10.95
2023-03-07T16:32:52.945Z,13.68
2023-03-07T16:35:21.998Z,14.43
2023-03-07T16:37:48.649Z,14.93
2023-03-07T16:40:16.190Z,14.65
2023-03-07T16:42:45.782Z,15.02
2023-03-07T16:45:35.332Z,14.07
2023-03-07T16:48:03.349Z,12.05
2023-03-07T16:50:34.787Z,13.27
2023-03-07T16:53:03.786Z,12.80
2023-03-07T16:55:34.269Z,17.67
2023-03-07T16:58:05.811Z,12.35
2023-03-07T17:00:35.227Z,14.27
2023-03-07T17:03:04.977Z,19.05
2023-03-07T17:05:34.650Z,19.13
2023-03-07T17:08:04.907Z,12.32
2023-03-07T17:10:36.366Z,13.90
2023-03-07T17:13:08.323Z,15.77
2023-03-07T17:15:36.501Z,14.10
2023-03-07T17:18:03.701Z,14.30
2023-03-07T17:20:33.764Z,13.27
2023-03-07T17:23:02.578Z,11.93
2023-03-07T17:25:29.189Z,14.80
2023-03-07T17:28:09.042Z,13.02
2023-03-07T17:30:37.697Z,11.68
2023-03-07T17:33:04.426Z,14.57
2023-03-07T17:35:34.606Z,13.60
2023-03-07T17:38:03.969Z,14.07
2023-03-07T17:40:35.213Z,14.55
2023-03-07T17:43:03.821Z,13.38
2023-03-07T17:45:30.469Z,11.40
2023-03-07T17:47:57.396Z,14.68
2023-03-07T17:50:24.533Z,13.27
2023-03-07T17:52:52.803Z,15.00
2023-03-07T17:55:20.297Z,18.42
2023-03-07T17:57:46.754Z,11.75
2023-03-07T18:00:14.344Z,12.73
2023-03-07T18:02:45.026Z,13.03
2023-03-07T18:05:13.125Z,15.23
2023-03-07T18:07:41.332Z,13.68
2023-03-07T18:10:09.161Z,15.90
2023-03-07T18:12:39.037Z,21.03
2023-03-07T18:15:13.503Z,18.73
2023-03-07T18:17:47.895Z,17.50
2023-03-07T18:20:17.725Z,20.33
2023-03-07T18:22:44.266Z,20.20
2023-03-07T18:25:12.999Z,19.93
2023-03-07T18:27:39.509Z,20.80
2023-03-07T18:30:12.215Z,17.90
2023-03-07T18:32:38.801Z,18.73
2023-03-07T18:35:05.944Z,25.43
2023-03-07T18:37:35.758Z,24.17
2023-03-07T18:40:05.935Z,22.80
2023-03-07T18:42:35.887Z,25.03
2023-03-07T18:45:06.177Z,23.93
2023-03-07T18:47:35.679Z,19.93
2023-03-07T18:50:05.693Z,24.30
2023-03-07T18:52:35.282Z,24.43
2023-03-07T18:55:05.459Z,26.77
2023-03-07T18:57:35.048Z,26.73
2023-03-07T19:00:04.199Z,24.03
2023-03-07T19:02:32.868Z,23.93
2023-03-07T19:05:05.261Z,23.93
2023-03-07T19:07:41.149Z,20.03
2023-03-07T19:10:11.673Z,21.03
2023-03-07T19:12:39.055Z,18.83
2023-03-07T19:15:06.504Z,18.63
2023-03-07T19:17:40.622Z,21.63
2023-03-07T19:20:08.157Z,21.27
2023-03-07T19:22:37.936Z,18.73
2023-03-07T19:25:05.392Z,20.33
2023-03-07T19:27:34.731Z,21.97
2023-03-07T19:30:04.128Z,21.73
2023-03-07T19:32:30.647Z,20.20
2023-03-07T19:34:57.194Z,26.13
2023-03-07T19:37:23.996Z,20.27
2023-03-07T19:39:53.819Z,21.00
2023-03-07T19:42:21.652Z,26.27
2023-03-07T19:44:48.151Z,24.77
2023-03-07T19:47:14.673Z,17.80
2023-03-07T19:49:41.108Z,24.60
2023-03-07T19:52:07.654Z,20.50
2023-03-07T19:54:34.247Z,27.00
2023-03-07T19:57:00.724Z,23.83
2023-03-07T19:59:27.197Z,17.20
2023-03-07T20:01:53.696Z,22.93
2023-03-07T20:04:20.177Z,23.33
2023-03-07T20:06:46.747Z,19.03
2023-03-07T20:09:14.045Z,19.47
2023-03-07T20:11:43.283Z,17.50
2023-03-07T20:14:11.491Z,20.97
2023-03-07T20:16:38.191Z,21.93
2023-03-07T20:19:07.070Z,22.23
2023-03-07T20:21:36.822Z,28.80
2023-03-07T20:24:07.416Z,25.33
2023-03-07T20:26:36.373Z,24.47
2023-03-07T20:29:07.780Z,23.43
2023-03-07T20:31:34.666Z,23.70
2023-03-07T20:34:04.401Z,25.43
2023-03-07T20:36:36.679Z,24.50
2023-03-07T20:39:10.053Z,20.57
2023-03-07T20:41:39.361Z,23.87
2023-03-07T20:44:07.772Z,23.57
2023-03-07T20:46:35.722Z,23.63
2023-03-07T20:49:07.518Z,22.80
2023-03-07T20:51:36.944Z,19.53
2023-03-07T20:54:14.627Z,28.23
2023-03-07T20:56:41.888Z,24.87
2023-03-07T20:59:12.010Z,25.57
2023-03-07T21:01:38.949Z,19.90
2023-03-07T21:04:11.677Z,22.37
2023-03-07T21:06:41.170Z,22.50
2023-03-07T21:09:10.184Z,21.13
2023-03-07T21:11:38.853Z,22.23
2023-03-07T21:14:05.548Z,21.17
2023-03-07T21:16:34.185Z,23.03
2023-03-07T21:19:06.017Z,23.43
2023-03-07T21:21:36.559Z,28.07
2023-03-07T21:24:07.003Z,23.97
2023-03-07T21:26:36.781Z,21.07
2023-03-07T21:29:09.012Z,24.73
2023-03-07T21:31:36.802Z,26.23
2023-03-07T21:34:08.591Z,24.13
2023-03-07T21:36:40.687Z,20.90
2023-03-07T21:39:09.719Z,26.80
2023-03-07T21:41:36.575Z,19.93
2023-03-07T21:44:06.202Z,21.37
2023-03-07T21:46:36.997Z,19.20
2023-03-07T21:49:07.506Z,18.67
2023-03-07T21:51:37.430Z,30.77
2023-03-07T21:54:08.636Z,20.60
2023-03-07T21:56:37.974Z,24.80
2023-03-07T21:59:08.231Z,19.47
2023-03-07T22:01:37.604Z,19.17
2023-03-07T22:04:07.817Z,23.30
2023-03-07T22:06:36.850Z,18.97
2023-03-07T22:09:03.456Z,20.87
2023-03-07T22:11:30.796Z,20.23
2023-03-07T22:13:57.281Z,21.53
2023-03-07T22:16:24.187Z,18.47
2023-03-07T22:18:57.909Z,18.57
2023-03-07T22:21:27.841Z,22.03
2023-03-07T22:24:00.625Z,19.30
2023-03-07T22:26:28.878Z,16.97
2023-03-07T22:29:07.348Z,21.73
2023-03-07T22:31:33.895Z,14.97
2023-03-07T22:34:00.572Z,16.67
2023-03-07T22:36:27.442Z,15.23
2023-03-07T22:38:55.667Z,20.03
2023-03-07T22:41:24.233Z,17.60
2023-03-07T22:43:52.603Z,20.13
2023-03-07T22:46:19.930Z,14.80
2023-03-07T22:48:46.901Z,15.03
2023-03-07T22:51:20.831Z,14.57
2023-03-07T22:53:48.111Z,15.00
2023-03-07T22:56:26.643Z,14.60
2023-03-07T22:58:56.445Z,13.23
2023-03-07T23:01:27.798Z,12.13
2023-03-07T23:03:55.830Z,15.63
2023-03-07T23:06:24.218Z,13.33
2023-03-07T23:08:52.768Z,14.83
2023-03-07T23:11:21.616Z,12.53
2023-03-07T23:13:48.126Z,11.87
2023-03-07T23:16:17.776Z,13.90
2023-03-07T23:18:45.431Z,12.97
2023-03-07T23:21:15.269Z,15.50
2023-03-07T23:23:42.118Z,11.23
2023-03-07T23:26:08.981Z,16.63
2023-03-07T23:28:35.653Z,10.97
2023-03-07T23:31:02.189Z,12.43
2023-03-07T23:33:28.715Z,13.60
2023-03-07T23:35:59.264Z,10.70
2023-03-07T23:38:25.735Z,10.97
2023-03-07T23:40:52.209Z,11.57
2023-03-07T23:43:18.636Z,9.47
2023-03-07T23:45:45.133Z,13.47
2023-03-07T23:48:11.565Z,12.87
2023-03-07T23:50:41.080Z,10.23
2023-03-07T23:53:07.604Z,9.73
2023-03-07T23:55:34.085Z,12.77
2023-03-07T23:58:00.557Z,13.60
